TAF Flughafenprognosen

Nürnberg TAF, ausgegeben Mi 22.01. 00:00

TAF EDDN 212300Z 2200/2224 VRB03KT 6000 SCT002 OVC004 BECMG 2208/2210 BKN008 TEMPO 2212/2216 SCT010 BECMG 2215/2217 FEW010 BKN020 TEMPO 2222/2224 BKN014
GültigkeitVonBisWind in Beaufort
(Knoten)
Wolken
(Meter über Grund)
Sichtweite
(Meter)
Wettererscheinung
Grundvorhersage Mi 22.01. 01:00 Do 23.01. 01:00 Uml 2 (3) Bedeckt (120)
Wolkig (61)
6000  
Übergang zu Mi 22.01. 09:00 Mi 22.01. 11:00   Stark bewölkt (240)    
Vorübergehend Mi 22.01. 13:00 Mi 22.01. 17:00   Wolkig (300)    
Übergang zu Mi 22.01. 16:00 Mi 22.01. 18:00   Stark bewölkt (610)
Leicht bewölkt (300)
   
Vorübergehend Mi 22.01. 23:00 Do 23.01. 01:00   Stark bewölkt (430)    

 

Hof TAF, ausgegeben Di 21.01. 18:00

TAF EDQM 211700Z 2118/2203 VRB03KT 9000 NSC TEMPO 2121/2203 2000 BCFG
GültigkeitVonBisWind in Beaufort
(Knoten)
Wolken
(Meter über Grund)
Sichtweite
(Meter)
Wettererscheinung
Grundvorhersage Di 21.01. 19:00 Mi 22.01. 04:00 Uml 2 (3) Nicht signifikant 9000  
Vorübergehend Di 21.01. 22:00 Mi 22.01. 04:00     2000 Nebel-Bänke

 

Erfurt-Bindersleben TAF, ausgegeben Mi 22.01. 00:00

TAF EDDE 212300Z 2200/2224 23004KT CAVOK BECMG 2212/2215 29006KT BKN008 TEMPO 2215/2219 3000 -DZ BKN004 PROB30 TEMPO 2219/2224 2000 BR BKN004
GültigkeitVonBisWind in Beaufort
(Knoten)
Wolken
(Meter über Grund)
Sichtweite
(Meter)
Wettererscheinung
Grundvorhersage Mi 22.01. 01:00 Do 23.01. 01:00 SW 2 (4) Nicht signifikant >= 10000  
Übergang zu Mi 22.01. 13:00 Mi 22.01. 16:00 WNW 2 (6) Stark bewölkt (240)    
Vorübergehend Mi 22.01. 16:00 Mi 22.01. 20:00   Stark bewölkt (120) 3000 Nieselregen (schwach)
Vorübergehend
(Wahrscheinlichkeit 30 %)
Mi 22.01. 20:00 Do 23.01. 01:00   Stark bewölkt (120) 2000 Nebeldunst

 

Augsburg TAF, ausgegeben Di 21.01. 18:00

TAF EDMA 211700Z 2118/2203 VRB03KT 7000 BKN009 BECMG 2120/2122 4000 BR TEMPO 2123/2203 BKN004
GültigkeitVonBisWind in Beaufort
(Knoten)
Wolken
(Meter über Grund)
Sichtweite
(Meter)
Wettererscheinung
Grundvorhersage Di 21.01. 19:00 Mi 22.01. 04:00 Uml 2 (3) Stark bewölkt (270) 7000  
Übergang zu Di 21.01. 21:00 Di 21.01. 23:00     4000 Nebeldunst
Vorübergehend Mi 22.01. 00:00 Mi 22.01. 04:00   Stark bewölkt (120)    

 

Frankfurt TAF, ausgegeben Mi 22.01. 00:00

TAF EDDF 212300Z 2200/2306 VRB03KT CAVOK TEMPO 2204/2210 2500 BR BECMG 2210/2213 04005KT BECMG 2214/2217 BKN025
GültigkeitVonBisWind in Beaufort
(Knoten)
Wolken
(Meter über Grund)
Sichtweite
(Meter)
Wettererscheinung
Grundvorhersage Mi 22.01. 01:00 Do 23.01. 07:00 Uml 2 (3) Nicht signifikant >= 10000  
Vorübergehend Mi 22.01. 05:00 Mi 22.01. 11:00     2500 Nebeldunst
Übergang zu Mi 22.01. 11:00 Mi 22.01. 14:00 NO 2 (5)      
Übergang zu Mi 22.01. 15:00 Mi 22.01. 18:00   Stark bewölkt (760)    

 

Stuttgart TAF, ausgegeben Mi 22.01. 00:00

TAF EDDS 212300Z 2200/2224 VRB02KT 8000 SCT004 BECMG 2200/2204 3000 BR BKN004 PROB40 TEMPO 2203/2209 0500 FZFG OVC001 BECMG 2209/2211 6000 SCT004
GültigkeitVonBisWind in Beaufort
(Knoten)
Wolken
(Meter über Grund)
Sichtweite
(Meter)
Wettererscheinung
Grundvorhersage Mi 22.01. 01:00 Do 23.01. 01:00 Uml 1 (2) Wolkig (120) 8000  
Übergang zu Mi 22.01. 01:00 Mi 22.01. 05:00   Stark bewölkt (120) 3000 Nebeldunst
Vorübergehend
(Wahrscheinlichkeit 40 %)
Mi 22.01. 04:00 Mi 22.01. 10:00   Bedeckt (30) 500 Nebel
Übergang zu Mi 22.01. 10:00 Mi 22.01. 12:00   Wolkig (120) 6000  

 

München TAF, ausgegeben Mi 22.01. 00:00

TAF EDDM 212300Z 2200/2306 VRB03KT 6000 OVC006 TEMPO 2200/2207 3000 -SN BR SCT002 BKN004 BECMG 2209/2211 BKN010 BECMG 2215/2217 FEW012 TEMPO 2220/2306 2000 BCFG
GültigkeitVonBisWind in Beaufort
(Knoten)
Wolken
(Meter über Grund)
Sichtweite
(Meter)
Wettererscheinung
Grundvorhersage Mi 22.01. 01:00 Do 23.01. 07:00 Uml 2 (3) Bedeckt (180) 6000  
Vorübergehend Mi 22.01. 01:00 Mi 22.01. 08:00   Stark bewölkt (120)
Wolkig (61)
3000 Schneefall (schwach)
Nebeldunst
Übergang zu Mi 22.01. 10:00 Mi 22.01. 12:00   Stark bewölkt (300)    
Übergang zu Mi 22.01. 16:00 Mi 22.01. 18:00   Leicht bewölkt (370)    
Vorübergehend Mi 22.01. 21:00 Do 23.01. 07:00     2000 Nebel-Bänke